createdAt,value
2023-06-28T00:00:16.788Z,2.60
2023-06-28T00:03:04.411Z,2.90
2023-06-28T00:05:32.123Z,2.40
2023-06-28T00:07:59.836Z,2.00
2023-06-28T00:10:27.445Z,2.40
2023-06-28T00:12:56.755Z,2.70
2023-06-28T00:15:24.336Z,2.10
2023-06-28T00:17:52.063Z,2.50
2023-06-28T00:20:19.786Z,2.40
2023-06-28T00:22:47.473Z,2.40
2023-06-28T00:25:15.062Z,2.50
2023-06-28T00:27:42.657Z,2.30
2023-06-28T00:30:10.554Z,2.40
2023-06-28T00:32:38.310Z,2.50
2023-06-28T00:35:07.349Z,2.60
2023-06-28T00:37:35.000Z,3.20
2023-06-28T00:40:02.683Z,2.80
2023-06-28T00:42:30.303Z,2.90
2023-06-28T00:44:57.899Z,3.20
2023-06-28T00:47:27.072Z,3.00
2023-06-28T00:49:56.018Z,3.20
2023-06-28T00:52:23.805Z,3.40
2023-06-28T00:54:51.627Z,3.00
2023-06-28T00:57:19.414Z,3.50
2023-06-28T00:59:49.146Z,2.70
2023-06-28T01:02:16.793Z,3.10
2023-06-28T01:04:44.824Z,2.60
2023-06-28T01:07:13.177Z,3.20
2023-06-28T01:09:41.589Z,3.30
2023-06-28T01:12:10.085Z,3.10
2023-06-28T01:14:37.726Z,3.60
2023-06-28T01:17:05.998Z,3.80
2023-06-28T01:19:33.649Z,3.70
2023-06-28T01:22:03.767Z,3.80
2023-06-28T01:24:31.510Z,3.70
2023-06-28T01:27:00.086Z,3.60
2023-06-28T01:29:28.043Z,3.20
2023-06-28T01:31:56.830Z,3.60
2023-06-28T01:34:24.804Z,4.00
2023-06-28T01:36:54.569Z,3.80
2023-06-28T01:39:23.473Z,4.00
2023-06-28T01:41:52.489Z,4.00
2023-06-28T01:44:20.667Z,4.10
2023-06-28T01:46:49.031Z,3.90
2023-06-28T01:49:16.690Z,3.50
2023-06-28T01:51:44.608Z,3.90
2023-06-28T01:54:12.304Z,4.00
2023-06-28T01:56:39.902Z,4.70
2023-06-28T01:59:07.667Z,4.60
2023-06-28T02:01:35.288Z,4.20
2023-06-28T02:04:03.021Z,4.10
2023-06-28T02:06:30.771Z,2.90
2023-06-28T02:08:58.374Z,3.30
2023-06-28T02:11:25.979Z,4.50
2023-06-28T02:13:53.709Z,4.30
2023-06-28T02:16:23.413Z,3.90
2023-06-28T02:18:51.052Z,4.50
2023-06-28T02:21:18.657Z,4.30
2023-06-28T02:23:46.224Z,3.40
2023-06-28T02:26:13.859Z,4.30
2023-06-28T02:28:41.496Z,3.70
2023-06-28T02:31:09.164Z,4.10
2023-06-28T02:33:36.791Z,3.90
2023-06-28T02:36:04.658Z,4.70
2023-06-28T02:38:32.260Z,4.50
2023-06-28T02:40:59.932Z,4.10
2023-06-28T02:43:27.599Z,4.50
2023-06-28T02:45:55.197Z,5.00
2023-06-28T02:48:22.854Z,4.60
2023-06-28T02:50:50.478Z,4.00
2023-06-28T02:53:18.118Z,5.50
2023-06-28T02:55:45.968Z,6.40
2023-06-28T02:58:13.618Z,5.70
2023-06-28T03:00:41.590Z,5.50
2023-06-28T03:03:09.552Z,6.00
2023-06-28T03:05:37.250Z,5.70
2023-06-28T03:08:04.996Z,5.40
2023-06-28T03:10:33.177Z,5.00
2023-06-28T03:13:00.791Z,3.80
2023-06-28T03:15:28.573Z,4.30
2023-06-28T03:20:29.167Z,3.90
2023-06-28T03:22:56.938Z,4.00
2023-06-28T03:25:24.623Z,4.20
2023-06-28T03:27:52.273Z,4.00
2023-06-28T03:30:20.259Z,3.80
2023-06-28T03:32:47.959Z,4.60
2023-06-28T03:35:15.778Z,3.90
2023-06-28T03:37:54.392Z,4.30
2023-06-28T03:40:24.176Z,3.80
2023-06-28T03:42:51.883Z,3.70
2023-06-28T03:45:19.957Z,3.60
2023-06-28T03:47:48.431Z,3.50
2023-06-28T03:50:16.283Z,3.90
2023-06-28T03:52:43.917Z,4.00
2023-06-28T03:55:11.522Z,2.50
2023-06-28T03:57:39.140Z,3.70
2023-06-28T04:00:07.314Z,3.20
2023-06-28T04:02:35.120Z,3.10
2023-06-28T04:05:03.174Z,3.00
2023-06-28T04:07:30.870Z,3.20
2023-06-28T04:09:58.655Z,2.40
2023-06-28T04:12:26.298Z,2.50
2023-06-28T04:14:53.942Z,2.90
2023-06-28T04:17:21.611Z,2.30
2023-06-28T04:19:51.137Z,2.50
2023-06-28T04:22:18.929Z,2.20
2023-06-28T04:24:46.546Z,1.90
2023-06-28T04:27:16.629Z,1.70
2023-06-28T04:29:45.974Z,1.70
2023-06-28T04:32:27.515Z,2.20
2023-06-28T04:34:56.943Z,2.40
2023-06-28T04:37:27.035Z,2.10
2023-06-28T04:40:01.972Z,2.30
2023-06-28T04:42:30.476Z,1.60
2023-06-28T04:44:58.206Z,1.80
2023-06-28T04:47:26.237Z,1.90
2023-06-28T04:49:53.998Z,1.90
2023-06-28T04:52:24.200Z,1.60
2023-06-28T04:54:52.143Z,1.80
2023-06-28T04:57:20.125Z,2.10
2023-06-28T04:59:47.965Z,2.10
2023-06-28T05:02:16.309Z,1.40
2023-06-28T05:04:44.008Z,1.80
2023-06-28T05:07:11.669Z,2.30
2023-06-28T05:09:39.342Z,1.30
2023-06-28T05:12:07.505Z,1.70
2023-06-28T05:14:35.114Z,1.80
2023-06-28T05:17:02.872Z,2.00
2023-06-28T05:19:30.516Z,1.80
2023-06-28T05:21:58.157Z,1.50
2023-06-28T05:24:25.805Z,1.50
2023-06-28T05:26:53.474Z,1.60
2023-06-28T05:29:21.131Z,1.60
2023-06-28T05:31:48.961Z,1.70
2023-06-28T05:34:19.236Z,1.80
2023-06-28T05:36:47.016Z,1.70
2023-06-28T05:39:14.633Z,1.90
2023-06-28T05:41:42.246Z,1.70
2023-06-28T05:44:09.887Z,2.10
2023-06-28T05:46:37.490Z,2.00
2023-06-28T05:49:09.189Z,1.80
2023-06-28T05:51:37.059Z,2.50
2023-06-28T05:54:05.407Z,1.80
2023-06-28T05:56:33.037Z,2.70
2023-06-28T05:59:00.671Z,2.70
2023-06-28T06:01:29.211Z,2.20
2023-06-28T06:03:56.992Z,2.30
2023-06-28T06:06:24.665Z,1.70
2023-06-28T06:08:52.386Z,1.80
2023-06-28T06:11:20.146Z,2.40
2023-06-28T06:13:48.162Z,2.20
2023-06-28T06:16:15.837Z,1.70
2023-06-28T06:18:43.504Z,2.50
2023-06-28T06:21:11.213Z,2.40
2023-06-28T06:23:39.198Z,2.50
2023-06-28T06:26:07.178Z,2.40
2023-06-28T06:28:34.810Z,2.50
2023-06-28T06:31:02.580Z,2.20
2023-06-28T06:33:30.291Z,3.00
2023-06-28T06:35:58.179Z,2.40
2023-06-28T06:38:25.812Z,2.10
2023-06-28T06:40:53.582Z,1.60
2023-06-28T06:43:21.216Z,1.90
2023-06-28T06:45:49.169Z,2.50
2023-06-28T06:48:16.790Z,1.70
2023-06-28T06:50:45.673Z,1.90
2023-06-28T06:53:13.437Z,2.00
2023-06-28T06:55:41.061Z,1.90
2023-06-28T06:58:08.750Z,2.00
2023-06-28T07:00:36.370Z,1.70
2023-06-28T07:03:04.126Z,2.10
2023-06-28T07:05:32.206Z,2.00
2023-06-28T07:07:59.891Z,2.10
2023-06-28T07:10:27.578Z,1.60
2023-06-28T07:12:55.204Z,1.60
2023-06-28T07:15:22.960Z,1.90
2023-06-28T07:17:53.242Z,2.00
2023-06-28T07:20:21.999Z,1.70
2023-06-28T07:22:49.644Z,1.90
2023-06-28T07:25:17.334Z,1.70
2023-06-28T07:27:45.043Z,1.80
2023-06-28T07:30:13.153Z,1.70
2023-06-28T07:32:40.877Z,1.60
2023-06-28T07:35:08.786Z,1.60
2023-06-28T07:37:36.403Z,1.70
2023-06-28T07:40:04.933Z,2.00
2023-06-28T07:42:32.620Z,1.70
2023-06-28T07:45:00.262Z,1.90
2023-06-28T07:47:27.986Z,1.80
2023-06-28T07:49:55.652Z,1.60
2023-06-28T07:52:23.293Z,1.50
2023-06-28T07:54:50.950Z,1.80
2023-06-28T07:57:18.727Z,2.10
2023-06-28T07:59:46.498Z,1.80
2023-06-28T08:02:14.153Z,1.50
2023-06-28T08:04:41.802Z,1.80
2023-06-28T08:07:09.458Z,1.70
2023-06-28T08:09:37.091Z,2.00
2023-06-28T08:12:05.303Z,2.20
2023-06-28T08:14:32.944Z,1.60
2023-06-28T08:17:00.535Z,1.70
2023-06-28T08:19:28.294Z,1.70
2023-06-28T08:21:55.935Z,1.60
2023-06-28T08:24:23.527Z,1.70
2023-06-28T08:26:51.391Z,1.40
2023-06-28T08:29:19.141Z,1.10
2023-06-28T08:31:46.860Z,1.60
2023-06-28T08:34:14.520Z,1.60
2023-06-28T08:36:42.275Z,1.80
2023-06-28T08:39:09.886Z,1.50
2023-06-28T08:41:40.317Z,1.60
2023-06-28T08:44:13.210Z,2.10
2023-06-28T08:46:44.394Z,1.50
2023-06-28T08:49:12.557Z,1.30
2023-06-28T08:51:40.820Z,1.80
2023-06-28T08:54:13.266Z,1.30
2023-06-28T08:56:48.929Z,1.40
2023-06-28T08:59:27.493Z,1.40
2023-06-28T09:01:55.608Z,1.50
2023-06-28T09:04:24.945Z,1.20
2023-06-28T09:06:52.591Z,1.30
2023-06-28T09:09:21.287Z,1.30
2023-06-28T09:11:49.029Z,1.40
2023-06-28T09:14:16.734Z,1.50
2023-06-28T09:16:44.494Z,1.50
2023-06-28T09:19:12.167Z,1.40
2023-06-28T09:21:40.642Z,1.10
2023-06-28T09:24:12.544Z,2.00
2023-06-28T09:26:42.737Z,1.60
2023-06-28T09:29:13.668Z,1.50
2023-06-28T09:31:42.798Z,1.40
2023-06-28T09:34:11.036Z,1.40
2023-06-28T09:36:38.846Z,1.30
2023-06-28T09:39:06.929Z,1.70
2023-06-28T09:41:39.722Z,1.20
2023-06-28T09:44:08.038Z,1.70
2023-06-28T09:46:36.414Z,1.20
2023-06-28T09:49:04.060Z,1.40
2023-06-28T09:51:31.722Z,1.70
2023-06-28T09:53:59.428Z,1.80
2023-06-28T09:56:35.053Z,1.40
2023-06-28T09:59:12.807Z,2.40
2023-06-28T10:01:44.060Z,2.00
2023-06-28T10:04:12.628Z,1.70
2023-06-28T10:06:42.740Z,1.90
2023-06-28T10:09:13.271Z,1.60
2023-06-28T10:11:44.025Z,1.50
2023-06-28T10:14:13.796Z,1.50
2023-06-28T10:16:42.387Z,1.70
2023-06-28T10:19:10.896Z,1.60
2023-06-28T10:21:40.215Z,1.50
2023-06-28T10:24:08.033Z,1.30
2023-06-28T10:26:37.382Z,1.20
2023-06-28T10:29:05.364Z,1.60
2023-06-28T10:31:33.179Z,1.70
2023-06-28T10:34:00.992Z,1.50
2023-06-28T10:36:30.691Z,1.80
2023-06-28T10:39:01.389Z,1.70
2023-06-28T10:41:29.309Z,1.80
2023-06-28T10:44:07.493Z,1.30
2023-06-28T10:46:35.947Z,1.20
2023-06-28T10:49:04.416Z,1.30
2023-06-28T10:51:35.469Z,1.50
2023-06-28T10:54:13.900Z,1.30
2023-06-28T10:56:52.091Z,1.40
2023-06-28T10:59:20.178Z,1.70
2023-06-28T11:01:56.085Z,1.30
2023-06-28T11:04:25.642Z,1.50
2023-06-28T11:07:17.514Z,1.70
2023-06-28T11:10:15.285Z,1.20
2023-06-28T11:12:51.888Z,1.50
2023-06-28T11:15:28.777Z,1.70
2023-06-28T11:18:08.413Z,1.10
2023-06-28T11:20:58.261Z,1.20
2023-06-28T11:23:30.263Z,1.40
2023-06-28T11:26:01.250Z,1.30
2023-06-28T11:28:33.336Z,1.80
2023-06-28T11:31:18.561Z,1.50
2023-06-28T11:33:52.177Z,1.20
2023-06-28T11:36:24.411Z,1.40
2023-06-28T11:38:53.015Z,1.90
2023-06-28T11:41:21.351Z,1.60
2023-06-28T11:43:49.657Z,1.50
2023-06-28T11:46:22.432Z,1.60
2023-06-28T11:48:52.058Z,1.80
2023-06-28T11:51:23.000Z,1.50
2023-06-28T11:53:51.310Z,1.30
2023-06-28T11:56:19.301Z,1.50
2023-06-28T11:58:47.535Z,1.20
2023-06-28T12:01:23.071Z,1.90
2023-06-28T12:03:51.367Z,0.90
2023-06-28T12:06:21.577Z,1.10
2023-06-28T12:08:50.064Z,1.50
2023-06-28T12:11:18.676Z,1.70
2023-06-28T12:13:47.102Z,1.20
2023-06-28T12:16:17.839Z,0.90
2023-06-28T12:19:01.758Z,1.30
2023-06-28T12:21:32.338Z,1.20
2023-06-28T12:24:20.104Z,1.10
2023-06-28T12:26:53.553Z,1.70
2023-06-28T12:29:23.274Z,1.50
2023-06-28T12:31:55.161Z,1.30
2023-06-28T12:34:25.141Z,1.00
2023-06-28T12:37:01.658Z,1.10
2023-06-28T12:39:32.728Z,1.10
2023-06-28T12:42:19.758Z,0.90
2023-06-28T12:44:55.526Z,1.10
2023-06-28T12:47:30.978Z,1.00
2023-06-28T12:50:00.006Z,1.00
2023-06-28T12:52:29.544Z,1.10
2023-06-28T12:54:58.310Z,0.80
2023-06-28T12:57:26.508Z,1.20
2023-06-28T12:59:54.414Z,1.10
2023-06-28T13:02:22.249Z,1.40
2023-06-28T13:04:50.338Z,1.30
2023-06-28T13:07:18.366Z,1.40
2023-06-28T13:09:46.402Z,1.40
2023-06-28T13:12:14.422Z,1.50
2023-06-28T13:14:42.081Z,1.50
2023-06-28T13:17:09.788Z,1.50
2023-06-28T13:19:37.617Z,1.50
2023-06-28T13:22:05.436Z,1.60
2023-06-28T13:24:33.199Z,1.50
2023-06-28T13:27:00.967Z,1.30
2023-06-28T13:29:28.991Z,1.40
2023-06-28T13:31:56.969Z,1.50
2023-06-28T13:34:24.993Z,1.20
2023-06-28T13:36:52.872Z,1.40
2023-06-28T13:39:20.976Z,1.20
2023-06-28T13:41:48.872Z,1.50
2023-06-28T13:44:16.617Z,1.40
2023-06-28T13:46:44.324Z,1.20
2023-06-28T13:49:12.087Z,1.40
2023-06-28T13:51:39.714Z,1.20
2023-06-28T13:54:07.447Z,1.50
2023-06-28T13:56:35.246Z,1.10
2023-06-28T13:59:02.898Z,1.30
2023-06-28T14:01:30.565Z,1.20
2023-06-28T14:03:58.242Z,1.20
2023-06-28T14:06:25.921Z,1.30
2023-06-28T14:08:53.718Z,1.20
2023-06-28T14:11:21.441Z,1.60
2023-06-28T14:13:49.232Z,1.20
2023-06-28T14:16:16.862Z,1.40
2023-06-28T14:18:44.507Z,1.40
2023-06-28T14:21:12.146Z,1.40
2023-06-28T14:23:39.816Z,2.30
2023-06-28T14:26:07.419Z,1.50
2023-06-28T14:28:35.187Z,1.60
2023-06-28T14:31:02.840Z,1.90
2023-06-28T14:33:30.492Z,2.00
2023-06-28T14:35:58.105Z,1.40
2023-06-28T14:38:25.763Z,1.30
2023-06-28T14:40:53.608Z,1.30
2023-06-28T14:43:21.233Z,1.40
2023-06-28T14:45:48.950Z,1.80
2023-06-28T14:48:18.334Z,1.50
2023-06-28T14:50:46.549Z,1.60
2023-06-28T14:53:14.315Z,1.40
2023-06-28T14:55:42.338Z,1.60
2023-06-28T14:58:10.305Z,2.00
2023-06-28T15:00:39.177Z,1.60
2023-06-28T15:03:07.145Z,2.00
2023-06-28T15:05:34.963Z,1.80
2023-06-28T15:08:02.816Z,2.00
2023-06-28T15:10:30.521Z,1.70
2023-06-28T15:12:58.172Z,1.90
2023-06-28T15:15:25.871Z,1.60
2023-06-28T15:17:53.772Z,2.00
2023-06-28T15:20:30.730Z,2.20
2023-06-28T15:23:09.870Z,2.20
2023-06-28T15:25:37.514Z,1.90
2023-06-28T15:28:06.207Z,1.90
2023-06-28T15:30:33.932Z,2.60
2023-06-28T15:33:01.765Z,2.10
2023-06-28T15:35:29.610Z,2.70
2023-06-28T15:37:57.236Z,3.10
2023-06-28T15:40:24.891Z,2.70
2023-06-28T15:42:52.592Z,2.80
2023-06-28T15:45:20.340Z,2.10
2023-06-28T15:47:48.040Z,2.30
2023-06-28T15:50:15.729Z,2.30
2023-06-28T15:52:49.025Z,2.00
2023-06-28T15:55:24.204Z,2.20
2023-06-28T15:57:52.221Z,2.60
2023-06-28T16:00:23.302Z,2.00
2023-06-28T16:02:51.113Z,2.40
2023-06-28T16:05:22.601Z,2.10
2023-06-28T16:07:51.875Z,2.30
2023-06-28T16:10:21.067Z,1.90
2023-06-28T16:12:49.280Z,2.60
2023-06-28T16:15:17.076Z,2.50
2023-06-28T16:17:44.733Z,2.30
2023-06-28T16:20:12.520Z,2.50
2023-06-28T16:22:40.464Z,3.40
2023-06-28T16:25:08.620Z,2.80
2023-06-28T16:27:36.325Z,2.60
2023-06-28T16:30:04.432Z,2.40
2023-06-28T16:32:35.010Z,2.20
2023-06-28T16:35:02.665Z,2.20
2023-06-28T16:37:30.291Z,2.90
2023-06-28T16:39:58.101Z,2.70
2023-06-28T16:42:25.710Z,3.10
2023-06-28T16:44:53.353Z,2.40
2023-06-28T16:47:21.100Z,2.10
2023-06-28T16:49:48.732Z,2.80
2023-06-28T16:52:16.860Z,3.80
2023-06-28T16:54:44.518Z,2.30
2023-06-28T16:57:12.166Z,2.70
2023-06-28T16:59:39.768Z,3.00
2023-06-28T17:02:07.467Z,3.30
2023-06-28T17:04:35.176Z,3.00
2023-06-28T17:07:02.902Z,2.40
2023-06-28T17:09:30.530Z,2.70
2023-06-28T17:11:58.140Z,3.60
2023-06-28T17:14:28.507Z,3.50
2023-06-28T17:16:56.162Z,3.60
2023-06-28T17:19:23.777Z,3.10
2023-06-28T17:21:51.352Z,2.50
2023-06-28T17:24:19.099Z,3.30
2023-06-28T17:26:46.696Z,3.50
2023-06-28T17:29:14.324Z,3.10
2023-06-28T17:31:41.915Z,3.20
2023-06-28T17:34:09.562Z,3.20
2023-06-28T17:36:41.367Z,2.80
2023-06-28T17:39:11.602Z,4.90
2023-06-28T17:41:39.231Z,2.60
2023-06-28T17:44:06.819Z,3.80
2023-06-28T17:46:35.944Z,3.50
2023-06-28T17:49:03.803Z,3.40
2023-06-28T17:51:31.431Z,4.20
2023-06-28T17:53:59.019Z,3.70
2023-06-28T17:56:26.719Z,3.70
2023-06-28T17:58:54.410Z,3.30
2023-06-28T18:01:22.122Z,3.50
2023-06-28T18:03:49.787Z,2.40
2023-06-28T18:06:17.466Z,3.30
2023-06-28T18:08:45.042Z,3.10
2023-06-28T18:11:12.639Z,3.80
2023-06-28T18:13:40.363Z,5.10
2023-06-28T18:16:08.038Z,3.80
2023-06-28T18:18:36.100Z,3.30
2023-06-28T18:21:03.861Z,4.10
2023-06-28T18:23:34.486Z,4.50
2023-06-28T18:26:02.045Z,4.10
2023-06-28T18:28:29.668Z,4.10
2023-06-28T18:30:57.443Z,3.90
2023-06-28T18:33:25.076Z,3.30
2023-06-28T18:35:53.057Z,4.00
2023-06-28T18:38:20.796Z,3.50
2023-06-28T18:40:48.451Z,4.10
2023-06-28T18:43:16.028Z,3.50
2023-06-28T18:45:43.759Z,4.00
2023-06-28T18:48:11.663Z,4.40
2023-06-28T18:50:39.326Z,3.70
2023-06-28T18:53:06.947Z,3.80
2023-06-28T18:55:34.556Z,3.90
2023-06-28T18:58:02.217Z,4.00
2023-06-28T19:00:29.884Z,4.60
2023-06-28T19:02:57.626Z,4.60
2023-06-28T19:05:25.624Z,5.60
2023-06-28T19:07:53.287Z,3.70
2023-06-28T19:10:23.117Z,4.90
2023-06-28T19:12:50.877Z,5.00
2023-06-28T19:15:18.450Z,4.70
2023-06-28T19:17:46.092Z,4.20
2023-06-28T19:20:14.234Z,4.00
2023-06-28T19:22:41.892Z,4.60
2023-06-28T19:25:09.822Z,4.80
2023-06-28T19:27:37.545Z,3.70
2023-06-28T19:30:05.760Z,4.10
2023-06-28T19:32:33.567Z,4.00
2023-06-28T19:35:01.298Z,5.40
2023-06-28T19:37:29.039Z,5.70
2023-06-28T19:39:56.672Z,4.00
2023-06-28T19:42:24.299Z,4.60
2023-06-28T19:44:52.217Z,6.10
2023-06-28T19:47:19.982Z,5.00
2023-06-28T19:49:47.664Z,5.00
2023-06-28T19:52:15.267Z,4.70
2023-06-28T19:54:43.298Z,6.10
2023-06-28T19:57:11.151Z,5.70
2023-06-28T19:59:38.863Z,5.30
2023-06-28T20:02:06.938Z,5.20
2023-06-28T20:04:35.036Z,6.60
2023-06-28T20:07:03.914Z,6.20
2023-06-28T20:09:31.634Z,6.10
2023-06-28T20:11:59.254Z,6.40
2023-06-28T20:14:26.876Z,5.60
2023-06-28T20:16:54.549Z,6.00
2023-06-28T20:19:22.246Z,5.90
2023-06-28T20:21:52.902Z,5.30
2023-06-28T20:24:20.652Z,6.20
2023-06-28T20:26:48.270Z,5.50
2023-06-28T20:29:15.999Z,5.50
2023-06-28T20:31:43.713Z,4.80
2023-06-28T20:34:11.385Z,4.80
2023-06-28T20:36:39.051Z,6.30
2023-06-28T20:39:06.771Z,4.30
2023-06-28T20:41:34.380Z,5.30
2023-06-28T20:44:01.985Z,4.70
2023-06-28T20:46:29.689Z,4.40
2023-06-28T20:48:57.302Z,5.70
2023-06-28T20:51:24.915Z,5.30
2023-06-28T20:53:52.573Z,6.20
2023-06-28T20:56:20.357Z,5.30
2023-06-28T20:58:48.040Z,5.90
2023-06-28T21:01:15.714Z,7.10
2023-06-28T21:03:43.368Z,7.40
2023-06-28T21:06:11.087Z,6.20
2023-06-28T21:08:38.714Z,6.10
2023-06-28T21:11:06.346Z,8.30
2023-06-28T21:13:33.997Z,7.40
2023-06-28T21:16:01.663Z,8.10
2023-06-28T21:18:29.341Z,7.60
2023-06-28T21:20:56.911Z,4.90
2023-06-28T21:23:24.547Z,10.00
2023-06-28T21:25:52.181Z,10.40
2023-06-28T21:28:19.985Z,9.80
2023-06-28T21:30:47.624Z,9.90
2023-06-28T21:33:15.228Z,11.60
2023-06-28T21:35:43.132Z,11.80
2023-06-28T21:38:11.050Z,10.70
2023-06-28T21:40:38.681Z,12.00
2023-06-28T21:43:06.455Z,8.40
2023-06-28T21:45:34.095Z,11.10
2023-06-28T21:48:01.869Z,10.70
2023-06-28T21:50:29.655Z,11.50
2023-06-28T21:52:57.304Z,12.20
2023-06-28T21:55:25.061Z,13.00
2023-06-28T21:57:52.723Z,8.50
2023-06-28T22:00:25.577Z,10.00
2023-06-28T22:02:53.605Z,9.20
2023-06-28T22:05:23.371Z,11.60
2023-06-28T22:07:51.181Z,11.50
2023-06-28T22:10:19.453Z,10.30
2023-06-28T22:12:47.132Z,7.60
2023-06-28T22:15:15.435Z,7.90
2023-06-28T22:17:43.172Z,8.10
2023-06-28T22:20:11.162Z,8.10
2023-06-28T22:22:38.973Z,11.20
2023-06-28T22:25:06.801Z,10.60
2023-06-28T22:27:34.431Z,7.40
2023-06-28T22:30:02.412Z,9.20
2023-06-28T22:32:30.251Z,9.40
2023-06-28T22:34:57.865Z,9.20
2023-06-28T22:37:25.503Z,11.30
2023-06-28T22:39:53.142Z,9.60
2023-06-28T22:42:21.036Z,8.80
2023-06-28T22:44:48.625Z,10.70
2023-06-28T22:47:16.252Z,11.00
2023-06-28T22:49:45.098Z,10.90
2023-06-28T22:52:12.799Z,11.00
2023-06-28T22:54:40.385Z,7.60
2023-06-28T22:57:07.995Z,9.40
2023-06-28T22:59:35.608Z,8.30
2023-06-28T23:02:03.462Z,10.00
2023-06-28T23:04:31.088Z,8.60
2023-06-28T23:06:58.743Z,10.10
2023-06-28T23:09:26.363Z,9.00
2023-06-28T23:11:54.007Z,8.70
2023-06-28T23:14:21.690Z,9.50
2023-06-28T23:16:49.326Z,7.60
2023-06-28T23:19:16.902Z,9.30
2023-06-28T23:21:44.936Z,7.30
2023-06-28T23:24:12.633Z,9.30
2023-06-28T23:26:40.274Z,9.60
2023-06-28T23:29:07.892Z,7.10
2023-06-28T23:31:35.493Z,6.70
2023-06-28T23:34:03.161Z,9.00
2023-06-28T23:36:31.113Z,7.40
2023-06-28T23:38:58.705Z,9.30
2023-06-28T23:41:26.337Z,9.10
2023-06-28T23:43:54.364Z,7.70
2023-06-28T23:46:21.971Z,8.10
2023-06-28T23:48:49.584Z,7.40
2023-06-28T23:51:17.187Z,6.90
2023-06-28T23:53:44.806Z,9.00
2023-06-28T23:56:12.593Z,7.40
2023-06-28T23:58:41.058Z,9.50
